Time;durP1;ratioP1;P1;durP2;ratioP2;P2;SDS_P1;SDS_P2;PMS_P1;PMS_P2;Temp;Humidity;BMP_temperature;BMP_pressure;BME280_temperature;BME280_humidity;BME280_pressure;Samples;Min_cycle;Max_cycle;Signal;HPM_P1;HPM_P2
2022/08/03 00:01:36;;;;;;;10.73;3.38;;;;;;;22.47;60.38;101244.97;5004692;28;20132;-70
2022/08/03 00:04:02;;;;;;;7.85;3.92;;;;;;;22.47;60.79;101244.97;5008225;28;20103;-70
2022/08/03 00:06:27;;;;;;;6.95;3.92;;;;;;;22.41;61.07;101251.41;5006704;28;20022;-70
2022/08/03 00:08:53;;;;;;;14.73;3.53;;;;;;;22.40;61.87;101244.19;5005889;28;20043;-70
2022/08/03 00:11:18;;;;;;;6.30;3.90;;;;;;;22.37;60.88;101250.19;4998807;28;20040;-70
2022/08/03 00:13:44;;;;;;;11.07;3.85;;;;;;;22.27;60.99;101244.31;4990359;28;20075;-70
2022/08/03 00:16:09;;;;;;;10.75;3.60;;;;;;;22.21;61.69;101250.75;5003566;28;20036;-70
2022/08/03 00:18:35;;;;;;;9.68;3.63;;;;;;;22.18;61.41;101251.22;5007546;28;20100;-70
2022/08/03 00:21:01;;;;;;;9.13;4.38;;;;;;;22.23;61.63;101248.59;5008152;28;20036;-70
2022/08/03 00:23:27;;;;;;;7.47;3.88;;;;;;;22.27;61.39;101237.97;5002571;28;20033;-70
2022/08/03 00:25:52;;;;;;;7.30;3.60;;;;;;;22.12;61.42;101249.34;4999757;28;20033;-70
2022/08/03 00:28:17;;;;;;;8.43;3.38;;;;;;;22.10;61.47;101243.19;5010103;28;20029;-70
2022/08/03 00:30:43;;;;;;;8.45;3.50;;;;;;;22.16;62.13;101245.06;4991382;28;20072;-70
2022/08/03 00:33:09;;;;;;;6.20;4.10;;;;;;;22.12;61.68;101241.06;5004258;28;20022;-70
2022/08/03 00:35:35;;;;;;;8.88;3.75;;;;;;;21.92;62.55;101235.69;5002418;28;20030;-70
2022/08/03 00:38:00;;;;;;;6.22;3.78;;;;;;;21.93;62.55;101237.38;5001503;28;20212;-70
2022/08/03 00:40:26;;;;;;;5.13;3.58;;;;;;;21.94;62.66;101239.91;4994835;28;20009;-70
2022/08/03 00:42:53;;;;;;;7.43;3.40;;;;;;;21.81;62.65;101240.00;5007606;28;20037;-70
2022/08/03 00:45:30;;;;;;;9.25;3.88;;;;;;;21.73;63.17;101237.53;5009521;28;20026;-70
2022/08/03 00:47:57;;;;;;;7.20;4.00;;;;;;;21.84;62.80;101238.72;5003155;28;20068;-69
2022/08/03 00:50:24;;;;;;;9.77;3.45;;;;;;;21.78;62.61;101240.47;5006607;28;20419;-71
2022/08/03 00:52:55;;;;;;;6.45;4.28;;;;;;;21.82;62.51;101230.66;5008041;28;20018;-71
2022/08/03 00:55:21;;;;;;;7.22;3.92;;;;;;;21.70;63.40;101237.97;5001664;28;20021;-70
2022/08/03 00:57:47;;;;;;;7.35;3.50;;;;;;;21.73;63.41;101234.78;4997059;28;20021;-70
2022/08/03 01:00:16;;;;;;;7.10;4.20;;;;;;;21.74;63.34;101244.72;5010574;28;20018;-70
2022/08/03 01:02:41;;;;;;;6.10;3.85;;;;;;;21.84;62.74;101234.06;4990953;28;20018;-70
2022/08/03 01:05:08;;;;;;;23.55;5.20;;;;;;;21.82;62.96;101236.19;4998987;28;20487;-70
2022/08/03 01:07:36;;;;;;;7.07;3.65;;;;;;;21.81;63.07;101234.50;5006025;28;20025;-70
2022/08/03 01:10:09;;;;;;;9.75;3.60;;;;;;;21.68;63.67;101240.94;5022341;28;20032;-70
2022/08/03 01:12:51;;;;;;;9.75;3.83;;;;;;;21.76;63.38;101237.06;4997764;28;20028;-70
2022/08/03 01:15:30;;;;;;;8.70;3.83;;;;;;;21.83;63.50;101232.34;5005235;28;20022;-72
2022/08/03 01:18:01;;;;;;;8.57;3.85;;;;;;;21.98;62.55;101245.00;5017437;28;20404;-70
2022/08/03 01:20:32;;;;;;;6.03;3.88;;;;;;;21.93;62.35;101231.88;5010380;28;20112;-70
2022/08/03 01:23:26;;;;;;;8.15;3.60;;;;;;;21.57;63.68;101236.16;5007744;28;20030;-72
2022/08/03 01:26:06;;;;;;;9.60;3.80;;;;;;;21.34;64.15;101233.97;5005982;28;20068;-70
2022/08/03 01:28:38;;;;;;;6.78;4.35;;;;;;;21.23;64.89;101231.88;5001108;28;20025;-71
2022/08/03 01:31:09;;;;;;;8.48;3.90;;;;;;;21.11;65.38;101222.59;5019016;28;20387;-70
2022/08/03 01:33:38;;;;;;;10.02;3.88;;;;;;;20.98;66.04;101217.16;5003089;28;20028;-69
2022/08/03 01:36:11;;;;;;;6.32;3.92;;;;;;;20.94;66.20;101221.44;5002019;28;20118;-70
2022/08/03 01:38:45;;;;;;;8.80;4.05;;;;;;;21.03;65.85;101214.59;5021716;28;20018;-70
2022/08/03 01:41:14;;;;;;;9.45;3.80;;;;;;;21.12;64.84;101218.78;5001682;28;20029;-70
2022/08/03 01:43:41;;;;;;;7.68;3.80;;;;;;;21.28;63.95;101218.31;5003783;28;20017;-70
2022/08/03 01:46:08;;;;;;;9.30;4.05;;;;;;;21.14;65.04;101216.69;5006430;28;20018;-70
2022/08/03 01:48:36;;;;;;;6.82;3.90;;;;;;;21.26;64.45;101217.69;4991909;28;20392;-72
2022/08/03 01:51:03;;;;;;;10.57;4.00;;;;;;;21.28;64.56;101218.31;5008003;28;20033;-72
2022/08/03 01:53:31;;;;;;;7.00;4.20;;;;;;;21.23;65.04;101220.84;5018207;28;20049;-72
2022/08/03 01:55:57;;;;;;;6.13;3.88;;;;;;;21.20;64.12;101221.31;5008195;28;20387;-72
2022/08/03 01:58:24;;;;;;;11.35;4.38;;;;;;;21.03;64.96;101214.59;5016456;28;20067;-72
2022/08/03 02:00:51;;;;;;;10.73;4.70;;;;;;;21.13;65.07;101215.84;5005609;28;20022;-72
2022/08/03 02:03:18;;;;;;;6.82;3.95;;;;;;;21.05;64.84;101220.72;5013070;28;20036;-72
2022/08/03 02:05:45;;;;;;;9.68;4.25;;;;;;;20.99;64.56;101210.59;5001492;28;20025;-72
2022/08/03 02:08:14;;;;;;;7.15;4.03;;;;;;;20.90;65.36;101210.00;5005897;28;20424;-72
2022/08/03 02:10:42;;;;;;;5.70;3.97;;;;;;;20.95;65.38;101212.09;4999875;28;20032;-72
2022/08/03 02:13:09;;;;;;;5.72;4.63;;;;;;;20.86;65.34;101209.59;5010181;28;20021;-72
2022/08/03 02:15:39;;;;;;;7.50;4.47;;;;;;;20.63;65.91;101209.25;4993417;28;20030;-74
2022/08/03 02:18:07;;;;;;;10.05;4.25;;;;;;;20.63;65.96;101212.00;4998093;28;20026;-72
2022/08/03 02:20:36;;;;;;;14.10;4.63;;;;;;;20.61;65.96;101199.53;4996349;28;20029;-72
2022/08/03 02:23:02;;;;;;;6.00;4.18;;;;;;;20.62;66.35;101212.22;5018133;28;20030;-72
2022/08/03 02:25:29;;;;;;;9.77;4.82;;;;;;;20.60;65.67;101206.91;5009501;28;20120;-72
2022/08/03 02:28:00;;;;;;;6.18;4.25;;;;;;;20.59;66.59;101207.97;5008561;28;20017;-74
2022/08/03 02:30:32;;;;;;;6.65;4.55;;;;;;;20.60;66.10;101204.16;5013044;28;20026;-71
2022/08/03 02:33:00;;;;;;;7.68;4.10;;;;;;;20.48;66.23;101190.25;5005404;28;20030;-72
2022/08/03 02:35:28;;;;;;;8.65;4.57;;;;;;;20.52;66.15;101205.25;5006768;28;20424;-72
2022/08/03 02:37:58;;;;;;;5.43;4.07;;;;;;;20.48;66.72;101203.16;4999775;28;20101;-71
2022/08/03 02:40:26;;;;;;;12.90;4.50;;;;;;;20.46;66.55;101197.03;4999190;28;20018;-72
2022/08/03 02:42:56;;;;;;;9.60;4.53;;;;;;;20.47;66.87;101188.53;4999172;28;20483;-71
2022/08/03 02:45:24;;;;;;;7.78;4.45;;;;;;;20.55;66.12;101193.00;5029963;28;20029;-74
2022/08/03 02:47:54;;;;;;;11.90;4.45;;;;;;;20.59;66.03;101197.81;5006916;28;20018;-72
2022/08/03 02:50:21;;;;;;;9.18;4.25;;;;;;;20.64;65.81;101194.44;5004901;28;20021;-71
2022/08/03 02:52:48;;;;;;;7.72;4.93;;;;;;;20.59;65.84;101196.97;5013064;28;20013;-71
2022/08/03 02:55:15;;;;;;;8.25;4.00;;;;;;;20.67;65.49;101199.50;5027610;23;20017;-68
2022/08/03 02:57:43;;;;;;;13.45;4.63;;;;;;;20.62;65.96;101196.56;5002076;28;20076;-71
2022/08/03 03:00:09;;;;;;;12.27;4.57;;;;;;;20.54;66.00;101199.56;4996099;28;20028;-71
2022/08/03 03:02:36;;;;;;;10.70;4.40;;;;;;;20.52;66.24;101191.50;4976720;28;20026;-71
2022/08/03 03:05:01;;;;;;;10.88;5.28;;;;;;;20.27;66.78;101193.22;5005170;28;20494;-71
2022/08/03 03:07:27;;;;;;;8.77;4.90;;;;;;;20.23;67.19;101195.56;5002162;28;20100;-71
2022/08/03 03:09:53;;;;;;;11.57;4.57;;;;;;;20.31;67.01;101194.47;4990974;28;20430;-71
2022/08/03 03:12:20;;;;;;;5.85;4.50;;;;;;;20.35;67.17;101195.75;5005694;28;20083;-71
2022/08/03 03:14:45;;;;;;;6.82;4.68;;;;;;;20.18;67.56;101189.84;4999397;28;20108;-71
2022/08/03 03:17:12;;;;;;;9.18;4.50;;;;;;;20.14;67.64;101188.59;4995827;28;20551;-71
2022/08/03 03:19:39;;;;;;;6.75;5.40;;;;;;;20.15;67.62;101193.03;4984686;28;20037;-71
2022/08/03 03:22:07;;;;;;;12.75;4.75;;;;;;;20.09;67.96;101182.91;5015331;28;20030;-71
2022/08/03 03:24:34;;;;;;;6.95;5.30;;;;;;;19.92;68.46;101181.63;5002213;28;20021;-71
2022/08/03 03:27:00;;;;;;;6.88;4.93;;;;;;;20.02;67.83;101195.81;5019691;28;20053;-71
2022/08/03 03:29:27;;;;;;;11.25;4.65;;;;;;;20.01;68.04;101194.09;5015981;28;20052;-71
2022/08/03 03:31:52;;;;;;;7.13;4.70;;;;;;;19.95;68.93;101183.94;4999350;28;20032;-71
2022/08/03 03:34:18;;;;;;;8.63;5.18;;;;;;;19.96;68.82;101192.00;5009562;28;20022;-71
2022/08/03 03:36:43;;;;;;;12.00;5.07;;;;;;;20.04;68.48;101188.19;4995380;28;20495;-71
2022/08/03 03:39:09;;;;;;;8.13;4.82;;;;;;;20.16;68.25;101186.47;4978959;28;20108;-71
2022/08/03 03:41:35;;;;;;;11.52;5.57;;;;;;;20.12;68.20;101193.47;4987487;28;20029;-71
2022/08/03 03:44:01;;;;;;;9.05;5.18;;;;;;;20.15;68.27;101195.78;5000495;28;20033;-71
2022/08/03 03:46:26;;;;;;;10.90;5.32;;;;;;;20.26;67.50;101200.63;5020300;28;20025;-71
2022/08/03 03:48:52;;;;;;;9.75;5.10;;;;;;;20.22;67.87;101191.13;4985134;28;20018;-71
2022/08/03 03:51:17;;;;;;;10.95;5.07;;;;;;;20.39;67.39;101190.66;4985585;28;20026;-71
2022/08/03 03:53:59;;;;;;;5.68;4.90;;;;;;;20.48;67.12;101183.91;5011094;28;20032;-71
2022/08/03 03:56:25;;;;;;;7.38;5.10;;;;;;;20.41;66.57;101188.53;4979148;28;20053;-71
2022/08/03 03:58:51;;;;;;;12.82;5.82;;;;;;;20.12;67.91;101190.72;5001659;28;20509;-71
2022/08/03 04:01:16;;;;;;;8.60;4.88;;;;;;;20.08;68.85;101191.34;4989489;28;20030;-71
2022/08/03 04:03:42;;;;;;;7.57;5.15;;;;;;;19.94;69.09;101187.75;5010007;28;20029;-71
2022/08/03 04:11:49;;;;;;;9.65;5.53;;;;;;;19.77;69.56;101190.94;5009570;28;20032;-71
2022/08/03 04:14:27;;;;;;;9.15;4.80;;;;;;;19.85;69.14;101189.03;4991134;28;20491;-71
2022/08/03 04:16:56;;;;;;;9.88;5.43;;;;;;;19.84;69.37;101201.09;5017014;28;20014;-71
2022/08/03 04:19:42;;;;;;;12.80;5.00;;;;;;;20.02;68.87;101193.91;4983231;28;20093;-71
2022/08/03 04:22:16;;;;;;;8.43;5.28;;;;;;;19.99;68.66;101193.47;4989164;28;20029;-73
2022/08/03 04:24:52;;;;;;;10.52;5.35;;;;;;;20.11;68.18;101197.28;5013102;28;20037;-73
2022/08/03 04:27:22;;;;;;;5.85;4.57;;;;;;;20.13;67.92;101192.41;4989887;28;20052;-73
2022/08/03 04:29:51;;;;;;;13.77;5.60;;;;;;;20.17;68.13;101190.06;4990448;28;20013;-73
2022/08/03 04:32:19;;;;;;;11.45;5.70;;;;;;;20.25;67.84;101196.19;5013682;28;20022;-74
2022/08/03 04:34:45;;;;;;;8.30;5.47;;;;;;;20.30;68.20;101199.16;4997008;28;20033;-74
2022/08/03 04:37:17;;;;;;;17.02;5.55;;;;;;;20.30;68.03;101199.16;4987816;28;20038;-73
2022/08/03 04:39:43;;;;;;;9.65;5.82;;;;;;;20.45;67.42;101206.34;4978725;28;20034;-72
2022/08/03 04:42:12;;;;;;;6.95;5.55;;;;;;;20.34;67.67;101205.03;4991741;28;20033;-73
2022/08/03 04:44:41;;;;;;;11.95;5.22;;;;;;;20.45;67.55;101201.69;4997239;28;20026;-73
2022/08/03 04:47:07;;;;;;;12.20;5.30;;;;;;;20.48;67.63;101205.91;5018194;28;20033;-73
2022/08/03 04:49:35;;;;;;;12.82;5.40;;;;;;;20.40;67.30;101203.34;5005193;28;20022;-73
2022/08/03 04:52:01;;;;;;;9.25;5.30;;;;;;;20.45;67.73;101200.84;4997608;28;20086;-73
2022/08/03 04:54:26;;;;;;;9.55;5.78;;;;;;;20.59;67.15;101202.47;4990424;28;20018;-73
2022/08/03 04:56:52;;;;;;;11.00;5.88;;;;;;;20.57;66.98;101210.13;5000847;28;20028;-73
2022/08/03 04:59:17;;;;;;;9.95;5.32;;;;;;;20.62;67.22;101207.56;4982356;28;20157;-73
2022/08/03 05:01:43;;;;;;;7.82;5.55;;;;;;;20.66;67.20;101214.31;4983842;28;20029;-75
2022/08/03 05:04:09;;;;;;;10.25;5.70;;;;;;;20.71;67.16;101211.75;4993954;28;20050;-74
2022/08/03 05:06:34;;;;;;;7.85;5.18;;;;;;;20.81;66.69;101211.31;4987845;28;20476;-74
2022/08/03 05:08:59;;;;;;;13.20;5.68;;;;;;;20.92;66.39;101218.03;4985106;28;20020;-75
2022/08/03 05:11:25;;;;;;;7.70;5.18;;;;;;;20.88;66.50;101216.78;5013102;28;20021;-74
2022/08/03 05:13:50;;;;;;;9.30;5.22;;;;;;;21.00;66.61;101215.06;4985744;28;20041;-74
2022/08/03 05:16:16;;;;;;;9.80;5.07;;;;;;;21.00;66.59;101212.31;5017279;28;20109;-74
2022/08/03 05:18:42;;;;;;;9.10;5.28;;;;;;;21.10;65.56;101213.50;4987759;28;20055;-74
2022/08/03 05:21:08;;;;;;;10.27;5.88;;;;;;;20.97;66.01;101215.47;5009546;28;20026;-74
2022/08/03 05:23:34;;;;;;;9.98;5.70;;;;;;;21.07;65.90;101207.59;4992535;28;20032;-74
2022/08/03 05:25:59;;;;;;;6.43;4.63;;;;;;;21.05;66.07;101217.97;4978526;28;20018;-74
2022/08/03 05:28:25;;;;;;;8.95;5.65;;;;;;;21.02;65.70;101213.75;4985715;28;20112;-74
2022/08/03 05:30:50;;;;;;;6.07;4.90;;;;;;;21.05;65.61;101215.22;4983719;28;20076;-74
2022/08/03 05:33:16;;;;;;;12.80;5.15;;;;;;;21.26;66.01;101209.41;5001254;28;20026;-74
2022/08/03 05:35:41;;;;;;;7.72;4.93;;;;;;;21.52;65.01;101218.63;5014682;28;20025;-74
2022/08/03 05:38:06;;;;;;;16.52;5.10;;;;;;;21.58;65.21;101217.69;4988888;28;20029;-74
2022/08/03 05:40:32;;;;;;;10.77;5.00;;;;;;;21.64;64.66;101214.06;5002519;28;20044;-74
2022/08/03 05:42:57;;;;;;;16.60;4.88;;;;;;;21.85;63.95;101219.22;5020163;28;20043;-75
2022/08/03 05:45:23;;;;;;;9.80;4.57;;;;;;;21.92;63.76;101211.72;4989768;28;20096;-74
2022/08/03 05:47:49;;;;;;;17.63;5.85;;;;;;;21.93;63.26;101216.16;4995833;28;20022;-74
2022/08/03 05:50:16;;;;;;;11.07;5.18;;;;;;;22.10;63.36;101215.63;5012395;28;20056;-75
2022/08/03 05:52:42;;;;;;;7.10;4.80;;;;;;;22.10;62.98;101215.63;5015377;28;20026;-75
2022/08/03 05:55:09;;;;;;;15.63;6.55;;;;;;;22.04;62.17;101216.47;4979067;28;20105;-75
2022/08/03 05:57:35;;;;;;;12.75;4.95;;;;;;;22.14;63.27;101217.69;4985683;28;20094;-75
2022/08/03 06:00:07;;;;;;;10.05;5.80;;;;;;;22.19;62.03;101219.78;4984638;28;20380;-74
2022/08/03 06:02:32;;;;;;;11.30;5.85;;;;;;;22.17;62.28;101221.94;4989602;28;20019;-75
2022/08/03 06:04:57;;;;;;;9.90;5.43;;;;;;;22.18;62.34;101212.59;5002808;28;20022;-74
2022/08/03 06:07:23;;;;;;;8.98;5.32;;;;;;;22.34;61.97;101217.50;5014449;28;20155;-75
2022/08/03 06:09:48;;;;;;;16.55;5.63;;;;;;;22.53;61.33;101215.63;4981589;28;20018;-74
2022/08/03 06:12:14;;;;;;;16.05;4.97;;;;;;;22.53;61.18;101217.53;5004123;28;20049;-75
2022/08/03 06:14:39;;;;;;;9.30;5.72;;;;;;;22.72;60.70;101213.72;5014057;28;20506;-75
2022/08/03 06:17:04;;;;;;;9.93;5.65;;;;;;;22.69;60.24;101215.03;4993723;28;20383;-74
2022/08/03 06:19:30;;;;;;;16.02;5.07;;;;;;;22.82;60.57;101214.03;5019909;28;20082;-72
2022/08/03 06:21:55;;;;;;;11.38;5.68;;;;;;;22.65;60.62;101221.22;4991907;28;20101;-73
2022/08/03 06:24:20;;;;;;;16.10;5.47;;;;;;;22.76;59.84;101209.44;4985734;28;20040;-73
2022/08/03 06:26:46;;;;;;;12.52;5.20;;;;;;;22.99;59.72;101209.56;4992532;28;20036;-73
2022/08/03 06:29:11;;;;;;;14.73;5.18;;;;;;;22.93;60.36;101204.97;4987355;28;20025;-73
2022/08/03 06:31:36;;;;;;;10.95;5.05;;;;;;;22.95;59.89;101202.84;5019686;28;20053;-73
2022/08/03 06:34:04;;;;;;;13.15;5.55;;;;;;;23.12;59.46;101207.72;5017188;28;20498;-73
2022/08/03 06:36:30;;;;;;;10.00;4.55;;;;;;;23.21;59.00;101212.69;5017335;28;20026;-74
2022/08/03 06:38:57;;;;;;;11.52;5.10;;;;;;;23.34;58.97;101217.16;5016801;28;20013;-73
2022/08/03 06:41:22;;;;;;;26.00;5.50;;;;;;;23.39;58.28;101217.31;5014754;28;20089;-73
2022/08/03 06:43:48;;;;;;;13.55;5.25;;;;;;;23.35;58.67;101223.56;5014571;28;20038;-73
2022/08/03 06:46:13;;;;;;;10.32;4.82;;;;;;;23.61;57.79;101223.22;4997242;28;20022;-73
2022/08/03 06:48:38;;;;;;;11.50;5.07;;;;;;;23.80;57.76;101215.69;5014216;28;20096;-73
2022/08/03 06:51:03;;;;;;;12.27;5.38;;;;;;;24.00;56.63;101216.19;5014419;28;20033;-73
2022/08/03 06:53:29;;;;;;;16.00;4.35;;;;;;;23.90;56.10;101221.44;5025492;28;20021;-73
2022/08/03 06:55:54;;;;;;;8.65;4.72;;;;;;;23.88;56.90;101218.09;5028670;28;20112;-73
2022/08/03 06:58:19;;;;;;;12.10;5.18;;;;;;;23.95;56.95;101218.81;5012105;28;20014;-73
2022/08/03 07:00:45;;;;;;;11.35;4.22;;;;;;;24.28;56.43;101220.16;5009575;28;20158;-73
2022/08/03 07:03:10;;;;;;;11.45;4.57;;;;;;;24.30;56.45;101215.22;4999180;28;20038;-72
2022/08/03 07:05:35;;;;;;;13.25;4.32;;;;;;;24.33;56.38;101214.75;4971527;28;20077;-73
2022/08/03 07:08:02;;;;;;;10.85;4.57;;;;;;;24.34;56.29;101222.84;4972463;28;20097;-73
2022/08/03 07:10:27;;;;;;;18.52;4.20;;;;;;;24.52;55.82;101221.03;4972450;28;20022;-73
2022/08/03 07:12:53;;;;;;;14.60;4.05;;;;;;;24.66;54.49;101229.94;4971445;28;20048;-72
2022/08/03 07:15:19;;;;;;;20.25;4.57;;;;;;;24.76;54.75;101224.59;5009004;28;20022;-73
2022/08/03 07:17:44;;;;;;;8.20;3.50;;;;;;;24.97;54.47;101237.78;5010634;28;20111;-73
2022/08/03 07:20:12;;;;;;;18.67;4.32;;;;;;;25.14;54.26;101227.66;5010764;28;20025;-73
2022/08/03 07:22:37;;;;;;;9.88;3.88;;;;;;;25.02;53.88;101235.13;5011629;28;20124;-73
2022/08/03 07:25:03;;;;;;;10.75;3.42;;;;;;;25.25;54.31;101233.41;5010218;28;20057;-73
2022/08/03 07:27:29;;;;;;;9.68;3.60;;;;;;;25.23;53.23;101230.03;5011280;28;20083;-73
2022/08/03 07:29:55;;;;;;;9.38;3.95;;;;;;;25.17;53.74;101238.25;5001077;28;20038;-73
2022/08/03 07:32:21;;;;;;;16.10;3.35;;;;;;;25.51;53.61;101238.34;4991637;28;20021;-73
2022/08/03 07:34:46;;;;;;;9.60;3.33;;;;;;;25.65;53.18;101239.72;5011055;28;20430;-73
2022/08/03 07:37:12;;;;;;;14.13;4.00;;;;;;;25.89;52.39;101239.63;5027492;28;20025;-73
2022/08/03 07:39:37;;;;;;;7.95;3.70;;;;;;;25.84;52.24;101231.22;5010917;28;20048;-73
2022/08/03 07:42:02;;;;;;;10.05;4.38;;;;;;;25.90;52.03;101241.31;5027529;28;20431;-72
2022/08/03 07:44:28;;;;;;;6.95;3.92;;;;;;;25.76;51.73;101245.50;5010547;28;20057;-72
2022/08/03 07:46:53;;;;;;;16.63;3.08;;;;;;;25.91;51.78;101248.53;5028785;28;20033;-73
2022/08/03 07:49:19;;;;;;;13.38;3.65;;;;;;;26.17;51.45;101241.47;5010659;28;20029;-73
2022/08/03 07:51:44;;;;;;;10.73;3.35;;;;;;;26.40;49.54;101234.91;5028614;28;20080;-73
2022/08/03 07:54:09;;;;;;;6.78;2.85;;;;;;;26.82;49.94;101226.06;5011661;28;20029;-73
2022/08/03 07:56:36;;;;;;;7.47;3.10;;;;;;;27.16;48.99;101222.06;5010398;28;20083;-73
2022/08/03 07:59:02;;;;;;;10.10;2.70;;;;;;;27.42;48.44;101228.75;5028438;28;20025;-73
2022/08/03 08:01:27;;;;;;;9.73;2.90;;;;;;;27.22;48.62;101237.72;5027803;28;20064;-73
2022/08/03 08:03:53;;;;;;;11.35;4.32;;;;;;;26.85;48.85;101231.09;5027482;28;20112;-73
2022/08/03 08:06:19;;;;;;;9.05;3.40;;;;;;;27.04;48.67;101229.69;5011011;28;20039;-73
2022/08/03 08:08:44;;;;;;;10.75;2.88;;;;;;;27.08;48.22;101230.88;5008816;28;20027;-72
2022/08/03 08:11:09;;;;;;;7.53;2.67;;;;;;;27.13;48.04;101222.63;5010345;28;20033;-73
2022/08/03 08:13:37;;;;;;;15.25;2.97;;;;;;;27.39;48.07;101223.75;5010012;28;20093;-73
2022/08/03 08:16:03;;;;;;;6.72;2.72;;;;;;;27.42;48.03;101225.16;5009738;28;20108;-73
2022/08/03 08:18:28;;;;;;;7.20;2.85;;;;;;;27.77;47.15;101222.72;5010407;28;20551;-73
2022/08/03 08:20:54;;;;;;;13.23;3.15;;;;;;;27.39;46.52;101214.56;5009603;28;20025;-72
2022/08/03 08:23:22;;;;;;;14.35;2.92;;;;;;;27.52;46.27;101214.97;5009413;28;20028;-73
2022/08/03 08:25:49;;;;;;;8.50;2.38;;;;;;;27.57;46.36;101217.78;5010593;28;20029;-73
2022/08/03 08:28:19;;;;;;;5.57;2.38;;;;;;;27.57;46.84;101205.81;4990577;28;20041;-74
2022/08/03 08:30:45;;;;;;;8.27;2.65;;;;;;;27.70;46.34;101210.97;5007078;28;20045;-73
2022/08/03 08:33:11;;;;;;;7.28;2.88;;;;;;;28.00;45.24;101220.72;4990410;28;20041;-73
2022/08/03 08:35:36;;;;;;;16.52;2.97;;;;;;;28.33;44.86;101214.88;5007375;28;20032;-73
2022/08/03 08:38:02;;;;;;;14.15;3.00;;;;;;;28.23;45.36;101214.75;5007284;28;20018;-73
2022/08/03 08:40:27;;;;;;;11.57;3.00;;;;;;;28.49;45.07;101212.16;5007388;28;20034;-73
2022/08/03 08:42:52;;;;;;;14.43;3.00;;;;;;;28.01;44.80;101228.78;4989606;28;20027;-73
2022/08/03 08:45:18;;;;;;;14.98;2.60;;;;;;;28.11;44.69;101216.91;5006862;28;20018;-73
2022/08/03 08:47:46;;;;;;;8.77;2.35;;;;;;;28.31;44.41;101225.44;4989794;28;20029;-73
2022/08/03 08:50:12;;;;;;;7.60;2.35;;;;;;;28.23;44.94;101214.75;5007240;28;20032;-73
2022/08/03 08:52:43;;;;;;;8.65;2.58;;;;;;;28.46;44.71;101229.44;4990464;28;20034;-73
2022/08/03 08:55:12;;;;;;;10.13;2.25;;;;;;;28.29;44.87;101235.97;4990193;28;20029;-73
2022/08/03 08:57:45;;;;;;;13.32;2.72;;;;;;;28.20;45.14;101232.00;4989293;28;20107;-73
2022/08/03 09:00:13;;;;;;;9.68;2.60;;;;;;;28.16;45.18;101222.50;4990721;28;20121;-73
2022/08/03 09:02:38;;;;;;;14.90;3.40;;;;;;;28.27;45.37;101215.06;4991565;28;20025;-72
2022/08/03 09:05:04;;;;;;;9.85;2.38;;;;;;;28.27;45.21;101231.78;5007957;28;20026;-73
2022/08/03 09:07:30;;;;;;;5.65;2.40;;;;;;;28.25;45.25;101229.25;4989567;28;20492;-73
2022/08/03 09:09:55;;;;;;;10.20;3.15;;;;;;;28.45;45.07;101216.63;4990276;28;20105;-73
2022/08/03 09:12:20;;;;;;;12.32;3.20;;;;;;;28.77;44.39;101219.31;4989512;28;20480;-73
2022/08/03 09:14:46;;;;;;;8.45;2.88;;;;;;;28.10;45.43;101226.34;4989213;28;20380;-73
2022/08/03 09:17:11;;;;;;;19.52;2.70;;;;;;;28.37;45.32;101226.31;4989993;28;20049;-73
2022/08/03 09:19:37;;;;;;;11.02;2.60;;;;;;;28.35;44.93;101229.34;5006989;28;20026;-74
2022/08/03 09:22:08;;;;;;;14.90;2.90;;;;;;;28.33;45.29;101236.31;4990180;28;20029;-73
2022/08/03 09:24:34;;;;;;;;;;;;;;;28.02;46.46;101229.63;4989746;28;20018;-73
2022/08/03 09:27:00;;;;;;;6.07;2.15;;;;;;;28.01;46.06;101216.81;4988899;28;19913;-73
2022/08/03 09:29:25;;;;;;;12.13;2.33;;;;;;;28.06;46.37;101236.34;5007919;28;20021;-73
2022/08/03 09:32:01;;;;;;;12.18;2.47;;;;;;;28.09;46.38;101230.25;4989454;28;20025;-73
2022/08/03 09:34:27;;;;;;;14.75;2.42;;;;;;;28.60;45.47;101225.06;4990641;28;20029;-74
2022/08/03 09:36:54;;;;;;;10.40;2.15;;;;;;;28.68;45.03;101224.53;4993490;28;20026;-73
2022/08/03 09:39:21;;;;;;;10.45;2.13;;;;;;;28.47;46.00;101228.31;5008777;28;20075;-73
2022/08/03 09:42:17;;;;;;;8.38;2.25;;;;;;;28.70;45.17;101224.28;5009732;28;20033;-73
2022/08/03 09:44:45;;;;;;;10.15;2.13;;;;;;;29.06;44.41;101217.78;4991670;28;20034;-73
2022/08/03 09:47:13;;;;;;;8.27;2.53;;;;;;;28.63;45.44;101218.97;4989340;28;20085;-73
2022/08/03 09:49:42;;;;;;;10.60;3.10;;;;;;;28.34;45.85;101224.88;4988924;28;20477;-74
2022/08/03 09:52:17;;;;;;;9.20;2.35;;;;;;;28.57;45.68;101220.03;4991824;28;20021;-73
2022/08/03 09:54:43;;;;;;;7.10;2.80;;;;;;;28.67;45.59;101225.66;4994597;28;20037;-73
2022/08/03 09:57:22;;;;;;;8.55;2.03;;;;;;;29.12;44.86;101221.41;4994062;28;20036;-74
2022/08/03 09:59:49;;;;;;;11.13;2.30;;;;;;;29.22;44.43;101221.47;4993197;28;20068;-73
2022/08/03 10:02:22;;;;;;;8.23;2.35;;;;;;;29.07;44.26;101213.03;4993381;28;20049;-73
2022/08/03 10:04:49;;;;;;;12.07;2.80;;;;;;;29.31;43.95;101214.22;4993536;28;20032;-74
2022/08/03 10:07:15;;;;;;;6.93;2.53;;;;;;;29.48;44.05;101218.75;4993868;28;20044;-72
2022/08/03 10:10:01;;;;;;;10.57;2.35;;;;;;;29.49;43.10;101217.63;4992981;28;20026;-72
2022/08/03 10:12:27;;;;;;;6.07;2.10;;;;;;;29.61;43.29;101229.41;5011235;28;20083;-74
2022/08/03 10:14:53;;;;;;;14.02;2.50;;;;;;;29.05;44.25;101212.47;4992868;28;20072;-73
2022/08/03 10:17:21;;;;;;;6.78;2.20;;;;;;;29.02;44.19;101224.19;4993831;28;20025;-74
2022/08/03 10:19:47;;;;;;;11.68;2.42;;;;;;;29.08;44.44;101211.91;4993150;28;20125;-73
2022/08/03 10:22:17;;;;;;;14.98;2.97;;;;;;;29.92;42.94;101214.31;4992703;28;20029;-73
2022/08/03 10:24:52;;;;;;;6.25;2.60;;;;;;;30.45;41.92;101206.50;4993991;28;20022;-74
2022/08/03 10:27:19;;;;;;;7.45;2.53;;;;;;;30.02;41.87;101212.66;4993947;28;20511;-73
2022/08/03 10:29:51;;;;;;;6.13;2.45;;;;;;;29.59;42.97;101214.84;4993128;28;20014;-77
2022/08/03 10:32:51;;;;;;;10.25;2.47;;;;;;;29.38;43.19;101220.38;4993173;28;20119;-75
2022/08/03 10:35:19;;;;;;;11.40;2.30;;;;;;;29.00;44.15;101206.88;4992729;28;20507;-73
2022/08/03 10:37:54;;;;;;;6.97;2.33;;;;;;;29.82;43.41;101200.38;4993462;28;20097;-73
2022/08/03 10:40:22;;;;;;;8.27;2.20;;;;;;;30.33;42.23;101197.56;4993120;28;20057;-73
2022/08/03 10:42:53;;;;;;;9.73;2.35;;;;;;;29.90;42.09;101198.97;4992524;28;20024;-73
2022/08/03 10:45:24;;;;;;;7.90;2.13;;;;;;;29.62;42.75;101198.41;5010446;28;20030;-73
2022/08/03 10:47:51;;;;;;;13.15;2.38;;;;;;;29.54;43.60;101201.75;4993534;28;20037;-73
2022/08/03 10:50:18;;;;;;;6.78;2.40;;;;;;;29.87;42.45;101208.75;4991124;23;20503;-71
2022/08/03 10:52:56;;;;;;;6.38;2.30;;;;;;;29.96;42.42;101201.47;5005374;28;20085;-72
2022/08/03 10:58:44;;;;;;;9.77;2.40;;;;;;;30.15;42.10;101206.53;4994272;28;20022;-74
2022/08/03 11:01:11;;;;;;;6.38;2.45;;;;;;;29.95;41.94;101202.59;4990114;28;20026;-74
2022/08/03 11:03:52;;;;;;;10.80;2.70;;;;;;;30.67;41.41;101199.72;4997682;28;20014;-75
2022/08/03 11:06:20;;;;;;;13.30;2.30;;;;;;;30.37;41.51;101198.66;5005506;28;20026;-74
2022/08/03 11:08:46;;;;;;;10.45;2.45;;;;;;;30.75;41.16;101193.56;4998764;28;20029;-74
2022/08/03 11:11:18;;;;;;;12.43;2.33;;;;;;;30.77;40.10;101191.28;4998901;28;20034;-75
2022/08/03 11:14:04;;;;;;;7.68;2.40;;;;;;;30.51;40.50;101204.50;5013731;28;20028;-74
2022/08/03 11:16:35;;;;;;;9.43;2.60;;;;;;;29.98;41.58;101207.63;5000862;28;20139;-73
2022/08/03 11:19:03;;;;;;;13.88;2.72;;;;;;;29.97;41.98;101193.94;4992877;28;20029;-74
2022/08/03 11:21:47;;;;;;;15.40;2.45;;;;;;;29.43;42.56;101200.88;5006810;28;20025;-73
2022/08/03 11:24:50;;;;;;;16.08;2.58;;;;;;;29.60;42.91;101197.00;5013510;28;20028;-74
2022/08/03 11:27:26;;;;;;;8.88;2.10;;;;;;;30.50;41.06;101192.47;4993320;28;20117;-74
2022/08/03 11:30:03;;;;;;;13.65;2.65;;;;;;;30.91;40.57;101186.78;5017098;28;20052;-73
2022/08/03 11:32:58;;;;;;;9.90;2.22;;;;;;;30.44;40.47;101207.59;5011908;28;20030;-73
2022/08/03 11:35:30;;;;;;;14.25;2.30;;;;;;;30.56;40.30;101189.66;4990015;28;20034;-73